createdAt,value
2024-02-23T00:01:31.865Z,0.50
2024-02-23T00:03:59.947Z,0.10
2024-02-23T00:06:29.415Z,0.20
2024-02-23T00:08:57.637Z,0.10
2024-02-23T00:11:26.659Z,0.10
2024-02-23T00:13:56.189Z,0.30
2024-02-23T00:16:24.229Z,0.10
2024-02-23T00:18:52.367Z,0.10
2024-02-23T00:21:20.489Z,0.20
2024-02-23T00:23:48.570Z,7.33
2024-02-23T00:26:16.709Z,0.10
2024-02-23T00:28:44.914Z,0.10
2024-02-23T00:31:14.520Z,1.33
2024-02-23T00:33:43.709Z,10.00
2024-02-23T00:36:11.884Z,3.03
2024-02-23T00:38:39.883Z,8.67
2024-02-23T00:41:08.335Z,7.13
2024-02-23T00:43:40.504Z,8.53
2024-02-23T00:46:08.923Z,9.33
2024-02-23T00:48:38.431Z,8.33
2024-02-23T00:51:06.647Z,8.70
2024-02-23T00:53:34.770Z,11.67
2024-02-23T00:56:03.061Z,12.23
2024-02-23T00:58:31.092Z,6.07
2024-02-23T01:00:59.167Z,10.67
2024-02-23T01:03:27.267Z,9.20
2024-02-23T01:05:56.861Z,7.87
2024-02-23T01:08:24.997Z,9.67
2024-02-23T01:10:53.114Z,7.77
2024-02-23T01:13:21.192Z,4.80
2024-02-23T01:15:49.488Z,6.53
2024-02-23T01:18:17.700Z,6.63
2024-02-23T01:20:45.728Z,4.90
2024-02-23T01:23:15.300Z,9.00
2024-02-23T01:25:43.383Z,3.97
2024-02-23T01:28:11.512Z,9.63
2024-02-23T01:30:39.783Z,3.73
2024-02-23T01:33:07.920Z,4.23
2024-02-23T01:35:37.715Z,11.17
2024-02-23T01:38:06.308Z,4.40
2024-02-23T01:40:35.839Z,12.37
2024-02-23T01:43:05.000Z,5.73
2024-02-23T01:45:33.128Z,11.80
2024-02-23T01:48:01.438Z,11.13
2024-02-23T01:50:29.666Z,9.10
2024-02-23T01:52:59.537Z,11.00
2024-02-23T01:55:27.585Z,8.83
2024-02-23T01:57:57.150Z,2.17
2024-02-23T02:00:25.217Z,3.23
2024-02-23T02:02:53.300Z,5.33
2024-02-23T02:05:21.404Z,6.77
2024-02-23T02:07:49.842Z,7.53
2024-02-23T02:10:17.886Z,4.60
2024-02-23T02:12:45.952Z,16.83
2024-02-23T02:15:15.378Z,19.07
2024-02-23T02:17:43.530Z,6.73
2024-02-23T02:20:13.851Z,32.60
2024-02-23T02:22:42.030Z,0.10
2024-02-23T02:25:10.502Z,0.10
2024-02-23T02:27:38.554Z,1.17
2024-02-23T02:30:07.626Z,1.03
2024-02-23T02:32:38.180Z,0.10
2024-02-23T02:35:07.250Z,0.10
2024-02-23T02:37:35.347Z,0.10
2024-02-23T02:40:03.821Z,14.33
2024-02-23T02:42:32.224Z,0.17
2024-02-23T02:45:00.262Z,0.10
2024-02-23T02:47:29.065Z,0.63
2024-02-23T02:49:58.525Z,0.17
2024-02-23T02:52:26.742Z,0.20
2024-02-23T02:54:54.731Z,1.13
2024-02-23T02:57:22.746Z,0.73
2024-02-23T02:59:51.480Z,0.10
2024-02-23T03:02:19.596Z,1.13
2024-02-23T03:04:50.863Z,0.33
2024-02-23T03:07:20.356Z,0.10
2024-02-23T03:09:48.413Z,0.13
2024-02-23T03:12:16.490Z,0.33
2024-02-23T03:14:44.528Z,1.37
2024-02-23T03:17:12.611Z,0.10
2024-02-23T03:19:40.769Z,0.10
2024-02-23T03:22:08.875Z,0.43
2024-02-23T03:24:38.539Z,0.20
2024-02-23T03:27:06.681Z,0.10
2024-02-23T03:29:34.851Z,0.13
2024-02-23T03:32:03.595Z,14.63
2024-02-23T03:34:31.682Z,0.10
2024-02-23T03:37:02.519Z,0.63
2024-02-23T03:39:30.949Z,0.10
2024-02-23T03:42:00.381Z,0.17
2024-02-23T03:44:28.682Z,1.17
2024-02-23T03:46:56.762Z,0.10
2024-02-23T03:49:24.814Z,0.70
2024-02-23T03:51:52.893Z,0.10
2024-02-23T03:54:21.045Z,1.03
2024-02-23T03:56:49.182Z,0.10
2024-02-23T03:59:18.645Z,0.10
2024-02-23T04:01:46.700Z,0.10
2024-02-23T04:04:14.969Z,0.30
2024-02-23T04:06:43.020Z,0.10
2024-02-23T04:09:11.073Z,0.10
2024-02-23T04:11:39.322Z,0.20
2024-02-23T04:14:07.512Z,0.17
2024-02-23T04:16:37.035Z,4.93
2024-02-23T04:19:05.150Z,0.10
2024-02-23T04:21:33.188Z,0.20
2024-02-23T04:24:01.231Z,0.10
2024-02-23T04:26:29.453Z,0.40
2024-02-23T04:28:57.572Z,0.10
2024-02-23T04:31:25.610Z,0.40
2024-02-23T04:33:55.069Z,0.20
2024-02-23T04:36:23.200Z,13.83
2024-02-23T04:38:51.241Z,0.10
2024-02-23T04:41:22.393Z,3.50
2024-02-23T04:43:50.611Z,0.30
2024-02-23T04:46:18.710Z,0.23
2024-02-23T04:48:46.735Z,13.27
2024-02-23T04:51:16.191Z,9.03
2024-02-23T04:53:44.259Z,17.37
2024-02-23T04:56:12.287Z,13.33
2024-02-23T04:58:42.438Z,6.03
2024-02-23T05:01:10.496Z,5.33
2024-02-23T05:03:38.686Z,10.67
2024-02-23T05:06:07.084Z,14.33
2024-02-23T05:08:36.568Z,7.23
2024-02-23T05:11:05.241Z,13.83
2024-02-23T05:13:33.347Z,13.27
2024-02-23T05:16:01.410Z,6.43
2024-02-23T05:18:29.447Z,13.33
2024-02-23T05:20:57.462Z,22.00
2024-02-23T05:23:25.646Z,13.30
2024-02-23T05:25:55.216Z,15.87
2024-02-23T05:28:23.299Z,23.87
2024-02-23T05:30:51.398Z,16.83
2024-02-23T05:35:50.016Z,7.47
2024-02-23T05:38:18.101Z,5.50
2024-02-23T05:40:46.572Z,13.77
2024-02-23T05:43:16.601Z,15.83
2024-02-23T05:45:45.272Z,7.10
2024-02-23T05:48:13.937Z,9.93
2024-02-23T05:50:42.073Z,15.43
2024-02-23T05:53:10.211Z,0.27
2024-02-23T05:55:38.240Z,0.10
2024-02-23T05:58:06.441Z,0.10
2024-02-23T06:00:36.022Z,0.10
2024-02-23T06:03:04.939Z,0.20
2024-02-23T06:05:33.044Z,0.77
2024-02-23T06:08:02.608Z,0.10
2024-02-23T06:10:30.717Z,6.43
2024-02-23T06:12:59.976Z,0.33
2024-02-23T06:15:29.415Z,0.10
2024-02-23T06:17:59.043Z,0.27
2024-02-23T06:20:27.187Z,0.17
2024-02-23T06:22:56.439Z,0.10
2024-02-23T06:25:24.454Z,0.93
2024-02-23T06:27:52.499Z,0.33
2024-02-23T06:30:21.972Z,0.20
2024-02-23T06:32:50.181Z,2.43
2024-02-23T06:35:19.762Z,0.10
2024-02-23T06:37:47.764Z,0.20
2024-02-23T06:40:16.168Z,0.20
2024-02-23T06:42:44.245Z,0.10
2024-02-23T06:45:12.699Z,0.10
2024-02-23T06:47:41.727Z,0.13
2024-02-23T06:50:10.567Z,0.10
2024-02-23T06:52:39.984Z,0.17
2024-02-23T06:55:09.808Z,0.10
2024-02-23T06:57:37.921Z,1.23
2024-02-23T07:00:09.762Z,2.73
2024-02-23T07:02:38.727Z,0.10
2024-02-23T07:05:07.498Z,0.10
2024-02-23T07:07:37.189Z,0.10
2024-02-23T07:10:07.537Z,0.10
2024-02-23T07:12:35.598Z,0.10
2024-02-23T07:15:04.182Z,0.10
2024-02-23T07:17:32.381Z,0.10
2024-02-23T07:20:06.883Z,0.10
2024-02-23T07:22:35.214Z,0.10
2024-02-23T07:25:05.613Z,7.93
2024-02-23T07:27:35.254Z,0.10
2024-02-23T07:30:04.066Z,0.10
2024-02-23T07:32:32.288Z,1.40
2024-02-23T07:35:00.898Z,0.23
2024-02-23T07:37:29.156Z,0.10
2024-02-23T07:39:57.262Z,0.10
2024-02-23T07:42:25.352Z,0.10
2024-02-23T07:44:54.716Z,0.10
2024-02-23T07:47:22.770Z,0.10
2024-02-23T07:49:52.443Z,0.10
2024-02-23T07:52:24.101Z,0.30
2024-02-23T07:54:53.113Z,0.10
2024-02-23T07:57:21.574Z,0.10
2024-02-23T07:59:50.149Z,0.30
2024-02-23T08:02:19.641Z,0.50
2024-02-23T08:04:48.988Z,0.30
2024-02-23T08:07:17.333Z,0.10
2024-02-23T08:09:45.671Z,7.43
2024-02-23T08:12:15.026Z,0.10
2024-02-23T08:14:43.681Z,0.10
2024-02-23T08:17:13.186Z,0.33
2024-02-23T08:19:42.702Z,3.03
2024-02-23T08:22:10.769Z,0.10
2024-02-23T08:24:38.837Z,0.10
2024-02-23T08:27:07.221Z,0.10
2024-02-23T08:29:35.322Z,0.10
2024-02-23T08:32:03.723Z,1.10
2024-02-23T08:34:32.061Z,0.40
2024-02-23T08:37:02.501Z,0.10
2024-02-23T08:39:31.241Z,0.17
2024-02-23T08:41:59.684Z,2.20
2024-02-23T08:44:28.228Z,0.60
2024-02-23T08:46:56.627Z,0.97
2024-02-23T08:49:24.811Z,0.10
2024-02-23T08:51:53.207Z,0.70
2024-02-23T08:54:22.766Z,0.20
2024-02-23T08:56:50.800Z,1.43
2024-02-23T08:59:18.888Z,0.10
2024-02-23T09:01:47.978Z,0.10
2024-02-23T09:04:16.035Z,0.10
2024-02-23T09:06:44.249Z,0.10
2024-02-23T09:09:12.459Z,0.10
2024-02-23T09:11:42.056Z,0.10
2024-02-23T09:14:10.480Z,0.20
2024-02-23T09:16:38.586Z,0.10
2024-02-23T09:19:07.534Z,1.80
2024-02-23T09:21:35.866Z,0.10
2024-02-23T09:24:03.859Z,0.13
2024-02-23T09:26:32.397Z,0.10
2024-02-23T09:29:02.004Z,0.97
2024-02-23T09:31:31.061Z,0.20
2024-02-23T09:33:59.230Z,0.10
2024-02-23T09:36:27.431Z,2.70
2024-02-23T09:38:55.487Z,0.40
2024-02-23T09:41:25.064Z,0.10
2024-02-23T09:43:54.050Z,0.10
2024-02-23T09:46:23.511Z,1.60
2024-02-23T09:48:52.040Z,0.10
2024-02-23T09:51:20.083Z,0.20
2024-02-23T09:53:48.595Z,0.77
2024-02-23T09:56:18.616Z,0.10
2024-02-23T09:58:47.083Z,0.20
2024-02-23T10:01:15.400Z,0.10
2024-02-23T10:03:44.896Z,0.20
2024-02-23T10:06:13.172Z,0.20
2024-02-23T10:08:41.393Z,0.10
2024-02-23T10:11:09.799Z,0.10
2024-02-23T10:13:37.862Z,0.50
2024-02-23T10:16:14.858Z,0.10
2024-02-23T10:18:45.474Z,0.10
2024-02-23T10:21:14.004Z,0.60
2024-02-23T10:23:42.772Z,0.10
2024-02-23T10:26:10.917Z,0.10
2024-02-23T10:28:39.693Z,0.10
2024-02-23T10:31:10.653Z,0.10
2024-02-23T10:33:40.983Z,0.10
2024-02-23T10:36:10.709Z,0.10
2024-02-23T10:38:41.008Z,0.10
2024-02-23T10:41:10.179Z,0.10
2024-02-23T10:43:46.148Z,0.10
2024-02-23T10:46:14.621Z,0.10
2024-02-23T10:48:43.515Z,0.10
2024-02-23T10:51:14.228Z,0.10
2024-02-23T10:53:43.263Z,0.10
2024-02-23T10:56:12.058Z,0.10
2024-02-23T10:58:40.375Z,0.10
2024-02-23T11:01:09.810Z,0.30
2024-02-23T11:03:38.898Z,0.10
2024-02-23T11:06:09.197Z,0.10
2024-02-23T11:08:38.940Z,0.20
2024-02-23T11:11:11.017Z,0.10
2024-02-23T11:13:39.891Z,0.10
2024-02-23T11:16:09.838Z,0.20
2024-02-23T11:18:38.831Z,0.10
2024-02-23T11:21:07.483Z,0.30
2024-02-23T11:23:44.609Z,0.10
2024-02-23T11:26:13.177Z,0.10
2024-02-23T11:28:45.903Z,2.23
2024-02-23T11:31:15.344Z,0.20
2024-02-23T11:33:50.018Z,0.10
2024-02-23T11:36:25.927Z,1.40
2024-02-23T11:38:59.342Z,0.30
2024-02-23T11:41:28.066Z,0.10
2024-02-23T11:43:56.924Z,0.10
2024-02-23T11:46:25.353Z,0.10
2024-02-23T11:48:55.950Z,0.10
2024-02-23T11:51:24.645Z,0.10
2024-02-23T11:53:52.828Z,0.20
2024-02-23T11:56:22.845Z,0.40
2024-02-23T11:58:51.145Z,0.10
2024-02-23T12:01:19.340Z,0.10
2024-02-23T12:03:47.481Z,0.10
2024-02-23T12:06:16.713Z,0.10
2024-02-23T12:08:44.943Z,0.10
2024-02-23T12:11:15.128Z,0.20
2024-02-23T12:13:46.056Z,0.10
2024-02-23T12:16:14.219Z,0.10
2024-02-23T12:18:42.247Z,0.10
2024-02-23T12:21:11.054Z,2.80
2024-02-23T12:23:42.909Z,0.20
2024-02-23T12:26:13.458Z,0.20
2024-02-23T12:28:41.537Z,0.10
2024-02-23T12:31:11.385Z,0.20
2024-02-23T12:33:41.280Z,0.10
2024-02-23T12:36:10.250Z,0.77
2024-02-23T12:38:38.407Z,0.10
2024-02-23T12:41:06.904Z,0.77
2024-02-23T12:43:35.771Z,0.10
2024-02-23T12:46:04.810Z,0.40
2024-02-23T12:48:34.389Z,0.20
2024-02-23T12:51:02.685Z,0.30
2024-02-23T12:53:35.620Z,0.10
2024-02-23T12:56:04.845Z,0.10
2024-02-23T12:58:33.102Z,0.47
2024-02-23T13:01:01.329Z,0.10
2024-02-23T13:03:30.038Z,0.60
2024-02-23T13:05:59.675Z,0.10
2024-02-23T13:08:28.293Z,0.20
2024-02-23T13:10:56.606Z,0.10
2024-02-23T13:13:24.730Z,0.10
2024-02-23T13:15:53.518Z,0.10
2024-02-23T13:18:21.976Z,0.20
2024-02-23T13:20:50.299Z,0.10
2024-02-23T13:23:22.825Z,0.10
2024-02-23T13:25:50.988Z,0.10
2024-02-23T13:28:19.113Z,0.10
2024-02-23T13:30:47.197Z,0.20
2024-02-23T13:33:17.554Z,0.20
2024-02-23T13:35:45.967Z,0.77
2024-02-23T13:38:14.103Z,0.30
2024-02-23T13:40:43.725Z,0.53
2024-02-23T13:43:11.791Z,0.57
2024-02-23T13:45:50.541Z,0.40
2024-02-23T13:48:19.807Z,0.67
2024-02-23T13:50:48.650Z,0.30
2024-02-23T13:53:16.938Z,0.47
2024-02-23T13:55:46.306Z,0.77
2024-02-23T13:58:14.639Z,1.97
2024-02-23T14:00:43.032Z,1.23
2024-02-23T14:03:11.530Z,1.70
2024-02-23T14:05:39.667Z,0.10
2024-02-23T14:08:09.267Z,0.73
2024-02-23T14:10:37.401Z,0.10
2024-02-23T14:13:07.554Z,0.20
2024-02-23T14:15:35.816Z,7.90
2024-02-23T14:18:04.127Z,10.60
2024-02-23T14:20:32.307Z,8.43
2024-02-23T14:23:00.602Z,25.17
2024-02-23T14:25:28.724Z,8.10
2024-02-23T14:27:57.643Z,3.93
2024-02-23T14:30:27.199Z,7.70
2024-02-23T14:32:55.567Z,13.43
2024-02-23T14:35:24.039Z,2.10
2024-02-23T14:37:52.273Z,15.20
2024-02-23T14:40:20.609Z,10.17
2024-02-23T14:42:49.964Z,17.63
2024-02-23T14:45:18.507Z,4.07
2024-02-23T14:47:48.276Z,9.90
2024-02-23T14:50:17.006Z,11.37
2024-02-23T14:52:45.923Z,4.23
2024-02-23T14:55:14.522Z,6.73
2024-02-23T14:57:43.044Z,9.20
2024-02-23T15:00:12.036Z,11.00
2024-02-23T15:02:41.378Z,14.77
2024-02-23T15:05:11.884Z,14.53
2024-02-23T15:07:40.007Z,12.87
2024-02-23T15:10:09.280Z,11.53
2024-02-23T15:12:37.604Z,12.43
2024-02-23T15:15:08.154Z,10.10
2024-02-23T15:17:36.497Z,14.70
2024-02-23T15:20:05.477Z,8.33
2024-02-23T15:22:37.121Z,10.43
2024-02-23T15:25:07.466Z,12.23
2024-02-23T15:27:35.759Z,11.13
2024-02-23T15:30:04.756Z,11.40
2024-02-23T15:32:33.036Z,8.33
2024-02-23T15:35:01.225Z,5.53
2024-02-23T15:37:29.575Z,5.33
2024-02-23T15:39:59.505Z,9.00
2024-02-23T15:42:27.522Z,9.70
2024-02-23T15:44:56.087Z,4.17
2024-02-23T15:47:24.378Z,7.43
2024-02-23T15:50:12.489Z,4.70
2024-02-23T15:52:41.051Z,3.17
2024-02-23T15:55:13.363Z,5.57
2024-02-23T15:57:41.411Z,4.30
2024-02-23T16:00:11.537Z,4.57
2024-02-23T16:02:39.755Z,4.90
2024-02-23T16:05:08.876Z,8.03
2024-02-23T16:07:37.239Z,14.03
2024-02-23T16:10:06.770Z,5.80
2024-02-23T16:12:36.414Z,5.83
2024-02-23T16:15:04.606Z,1.10
2024-02-23T16:17:34.928Z,4.43
2024-02-23T16:20:03.447Z,5.40
2024-02-23T16:22:34.328Z,6.67
2024-02-23T16:25:02.372Z,3.83
2024-02-23T16:27:31.044Z,8.63
2024-02-23T16:30:01.116Z,3.90
2024-02-23T16:32:29.426Z,25.37
2024-02-23T16:34:58.127Z,59.90
2024-02-23T16:37:26.551Z,47.53
2024-02-23T16:39:54.567Z,16.47
2024-02-23T16:42:23.006Z,13.53
2024-02-23T16:44:51.231Z,6.03
2024-02-23T16:47:21.030Z,3.57
2024-02-23T16:49:49.388Z,9.60
2024-02-23T16:52:17.518Z,11.70
2024-02-23T16:54:45.650Z,47.87
2024-02-23T16:57:13.896Z,36.53
2024-02-23T16:59:41.979Z,11.87
2024-02-23T17:02:10.105Z,4.43
2024-02-23T17:04:42.166Z,1.40
2024-02-23T17:07:10.221Z,3.17
2024-02-23T17:09:38.735Z,5.90
2024-02-23T17:12:07.376Z,2.07
2024-02-23T17:14:36.024Z,2.00
2024-02-23T17:17:04.581Z,8.20
2024-02-23T17:19:33.173Z,12.93
2024-02-23T17:22:02.886Z,3.00
2024-02-23T17:24:31.116Z,5.60
2024-02-23T17:26:59.160Z,11.57
2024-02-23T17:29:27.641Z,13.20
2024-02-23T17:31:55.840Z,8.60
2024-02-23T17:34:24.158Z,16.27
2024-02-23T17:36:52.633Z,16.47
2024-02-23T17:39:22.350Z,16.77
2024-02-23T17:41:50.661Z,8.00
2024-02-23T17:44:19.225Z,27.40
2024-02-23T17:46:49.497Z,11.57
2024-02-23T17:49:17.760Z,9.37
2024-02-23T17:51:45.954Z,8.17
2024-02-23T17:54:14.661Z,8.43
2024-02-23T17:56:44.369Z,8.73
2024-02-23T17:59:12.860Z,8.53
2024-02-23T18:01:41.000Z,15.03
2024-02-23T18:04:12.180Z,15.60
2024-02-23T18:06:40.662Z,18.87
2024-02-23T18:09:08.887Z,9.43
2024-02-23T18:11:39.624Z,16.00
2024-02-23T18:14:20.830Z,9.37
2024-02-23T18:16:49.119Z,7.00
2024-02-23T18:19:17.953Z,5.87
2024-02-23T18:21:46.312Z,6.10
2024-02-23T18:24:14.552Z,8.00
2024-02-23T18:26:48.049Z,11.43
2024-02-23T18:29:16.270Z,18.03
2024-02-23T18:31:45.918Z,15.37
2024-02-23T18:34:15.132Z,7.10
2024-02-23T18:36:44.341Z,3.60
2024-02-23T18:39:12.468Z,1.97
2024-02-23T18:41:40.774Z,2.93
2024-02-23T18:44:08.915Z,0.20
2024-02-23T18:46:37.057Z,0.20
2024-02-23T18:49:06.659Z,0.20
2024-02-23T18:51:34.685Z,0.10
2024-02-23T18:54:02.778Z,2.63
2024-02-23T18:56:31.764Z,0.50
2024-02-23T18:58:59.922Z,0.60
2024-02-23T19:01:27.967Z,0.30
2024-02-23T19:03:56.290Z,0.33
2024-02-23T19:06:26.165Z,0.67
2024-02-23T19:09:00.145Z,0.70
2024-02-23T19:11:28.834Z,0.10
2024-02-23T19:13:57.107Z,0.27
2024-02-23T19:16:25.279Z,0.37
2024-02-23T19:18:53.424Z,0.20
2024-02-23T19:21:22.842Z,0.20
2024-02-23T19:23:52.468Z,0.30
2024-02-23T19:26:24.279Z,0.73
2024-02-23T19:28:52.928Z,0.50
2024-02-23T19:31:22.760Z,7.00
2024-02-23T19:33:50.960Z,0.10
2024-02-23T19:36:19.159Z,0.20
2024-02-23T19:38:47.598Z,0.10
2024-02-23T19:41:17.273Z,0.57
2024-02-23T19:43:45.756Z,0.50
2024-02-23T19:46:18.343Z,0.60
2024-02-23T19:48:46.607Z,0.77
2024-02-23T19:51:15.208Z,0.37
2024-02-23T19:53:46.770Z,0.77
2024-02-23T19:56:16.457Z,0.10
2024-02-23T19:58:44.795Z,0.40
2024-02-23T20:01:13.313Z,0.10
2024-02-23T20:03:41.466Z,0.40
2024-02-23T20:06:13.922Z,0.20
2024-02-23T20:08:42.561Z,0.20
2024-02-23T20:11:10.879Z,1.73
2024-02-23T20:13:40.631Z,0.93
2024-02-23T20:16:08.802Z,0.63
2024-02-23T20:18:37.016Z,1.90
2024-02-23T20:21:05.630Z,1.40
2024-02-23T20:23:34.004Z,0.60
2024-02-23T20:26:02.138Z,0.80
2024-02-23T20:28:32.516Z,2.47
2024-02-23T20:31:06.679Z,0.13
2024-02-23T20:33:35.665Z,0.60
2024-02-23T20:36:04.108Z,2.17
2024-02-23T20:38:32.314Z,1.33
2024-02-23T20:41:01.038Z,1.13
2024-02-23T20:43:29.402Z,0.20
2024-02-23T20:45:59.228Z,0.37
2024-02-23T20:48:28.869Z,0.97
2024-02-23T20:50:57.238Z,0.43
2024-02-23T20:53:25.322Z,0.40
2024-02-23T20:55:53.398Z,0.90
2024-02-23T20:58:21.518Z,0.93
2024-02-23T21:00:49.874Z,1.23
2024-02-23T21:03:21.804Z,0.20
2024-02-23T21:05:51.414Z,0.63
2024-02-23T21:08:19.597Z,0.33
2024-02-23T21:10:47.615Z,0.60
2024-02-23T21:13:15.946Z,0.17
2024-02-23T21:15:44.084Z,1.60
2024-02-23T21:18:16.532Z,0.53
2024-02-23T21:20:45.724Z,0.40
2024-02-23T21:23:15.355Z,0.57
2024-02-23T21:25:44.129Z,0.97
2024-02-23T21:28:12.420Z,0.27
2024-02-23T21:30:44.725Z,0.50
2024-02-23T21:33:13.118Z,0.23
2024-02-23T21:35:41.443Z,5.33
2024-02-23T21:38:09.717Z,0.53
2024-02-23T21:40:39.328Z,1.47
2024-02-23T21:43:07.954Z,0.37
2024-02-23T21:45:36.210Z,0.20
2024-02-23T21:48:04.603Z,0.10
2024-02-23T21:50:32.850Z,0.50
2024-02-23T21:53:01.053Z,0.47
2024-02-23T21:55:30.113Z,0.27
2024-02-23T21:57:59.585Z,1.40
2024-02-23T22:00:27.619Z,0.70
2024-02-23T22:02:56.765Z,0.70
2024-02-23T22:05:25.104Z,0.30
2024-02-23T22:07:53.324Z,0.10
2024-02-23T22:10:21.355Z,0.10
2024-02-23T22:12:49.511Z,0.30
2024-02-23T22:15:21.238Z,0.20
2024-02-23T22:17:49.661Z,0.83
2024-02-23T22:20:17.971Z,0.20
2024-02-23T22:22:46.001Z,0.20
2024-02-23T22:25:14.000Z,0.53
2024-02-23T22:27:41.972Z,2.33
2024-02-23T22:30:10.526Z,0.20
2024-02-23T22:32:40.172Z,0.87
2024-02-23T22:35:09.000Z,0.63
2024-02-23T22:37:37.416Z,14.40
2024-02-23T22:40:09.661Z,22.33
2024-02-23T22:42:37.853Z,12.97
2024-02-23T22:45:07.850Z,24.20
2024-02-23T22:47:36.171Z,20.53
2024-02-23T22:50:06.178Z,20.27
2024-02-23T22:52:34.309Z,17.93
2024-02-23T22:55:02.350Z,17.43
2024-02-23T22:57:30.364Z,17.33
2024-02-23T22:59:58.505Z,10.90
2024-02-23T23:02:27.984Z,15.63
2024-02-23T23:04:56.189Z,10.23
2024-02-23T23:07:25.747Z,5.17
2024-02-23T23:09:54.009Z,4.10
2024-02-23T23:12:22.167Z,4.13
2024-02-23T23:14:50.185Z,0.70
2024-02-23T23:17:21.547Z,2.07
2024-02-23T23:19:49.638Z,5.43
2024-02-23T23:22:17.791Z,6.97
2024-02-23T23:24:47.186Z,13.23
2024-02-23T23:27:15.334Z,7.20
2024-02-23T23:29:43.406Z,10.40
2024-02-23T23:32:11.660Z,6.07
2024-02-23T23:34:39.829Z,18.93
2024-02-23T23:37:08.361Z,18.33
2024-02-23T23:39:36.447Z,13.93
2024-02-23T23:42:06.234Z,7.30
2024-02-23T23:44:34.328Z,4.23
2024-02-23T23:47:04.070Z,11.67
2024-02-23T23:49:32.201Z,11.53
2024-02-23T23:52:04.290Z,5.23
2024-02-23T23:54:33.282Z,13.17
2024-02-23T23:57:01.562Z,9.07
2024-02-23T23:59:31.061Z,4.07
